METAR Data
IDs: Format: Raw Decoded Include TAF

Data at: 0743 UTC 18 Nov 2018

PAOO 180656Z AUTO 00000KT 10SM -RA OVC040 02/02 A2926 RMK AO2 SLP920 P0001 T00220017 FZRANO
PAOO 180556Z AUTO 00000KT 6SM -RA BR FEW016 OVC032 02/02 A2927 RMK AO2 SLP921 P0004 60011 T00220017 10028 20022 55000 FZRANO
PAOO 180546Z AUTO 00000KT 10SM -RA SCT018 OVC032 02/02 A2927 RMK AO2 P0003 FZRANO
PAOO 180456Z AUTO 00000KT 10SM -RA FEW009 BKN019 OVC030 02/02 A2926 RMK AO2 SLP920 P0002 T00220017 FZRANO
PAOO 180416Z AUTO 00000KT 10SM -RA SCT005 BKN017 OVC022 02/02 A2926 RMK AO2 P0001 FZRANO
PAOO 180356Z AUTO 00000KT 10SM -RA OVC005 02/02 A2926 RMK AO2 SLP920 P0002 T00220017 FZRANO
PAOO 180335Z AUTO 00000KT 10SM -RA OVC005 02/02 A2926 RMK AO2 P0002 FZRANO
PAOO 180256Z AUTO 00000KT 10SM -RA OVC007 02/02 A2927 RMK AO2 SLP921 P0001 60003 T00220017 55005 FZRANO
PAOO 180156Z AUTO 04003KT 10SM -RA OVC005 03/02 A2926 RMK AO2 SLP920 P0001 T00280022
PAOO 180056Z AUTO 05006KT 10SM -RA OVC005 03/02 A2927 RMK AO2 SLP922 P0001 T00280022
PAOO 172356Z AUTO 06007KT 10SM -RA OVC005 03/02 A2928 RMK AO2 SLP926 P0002 60006 T00280022 10028 20022 58010
PAOO 172317Z AUTO 06008KT 4SM -RA BR BKN005 OVC010 03/02 A2929 RMK AO2 CIG 003V008 P0001
PAOO 172256Z AUTO 05009KT 4SM -RA BR SCT005 OVC013 02/02 A2930 RMK AO2 SLP931 P0001 T00220022 FZRANO
PAOO 172212Z AUTO 05010KT 10SM -RA SCT005 OVC012 02/02 A2930 RMK AO2 P0001 FZRANO
PAOO 172156Z AUTO 05009KT 6SM -RA BR OVC012 02/02 A2930 RMK AO2 SLP934 P0000 T00220022 FZRANO
PAOO 172124Z AUTO 06010KT 10SM -RA OVC014 03/02 A2930 RMK AO2 P0000
PAOO 172111Z AUTO 06010KT 9SM -RA OVC016 03/02 A2931 RMK AO2 P0000
PAOO 172103Z AUTO 06009KT 6SM -RA BR OVC014 03/02 A2931 RMK AO2 P0000
PAOO 172056Z AUTO 06010KT 2 1/2SM -RA BR OVC014 03/02 A2931 RMK AO2 UPB21E23 SLP936 P0000 60003 T00280022 58006
PAOO 172043Z AUTO 06010KT 1 3/4SM -RA BR BKN014 OVC020 03/02 A2931 RMK AO2 UPB21E23 P0000
PAOO 172023Z AUTO 05009KT 2SM -RA BR OVC014 03/02 A2931 RMK AO2 UPB21E23 P0000
PAOO 171956Z AUTO 06009KT 10SM -RA FEW006 BKN012 OVC029 03/02 A2932 RMK AO2 SLP939 P0001 T00280022
PAOO 171949Z AUTO 06010KT 10SM -RA SCT008 BKN014 OVC029 03/02 A2932 RMK AO2 P0001
PAOO 171938Z AUTO 06009KT 10SM -RA FEW010 BKN029 OVC040 03/02 A2932 RMK AO2 P0001
PAOO 171856Z AUTO 06009KT 10SM -RA SCT010 SCT028 OVC038 03/02 A2932 RMK AO2 SLP940 P0002 T00280022
PAOO 171853Z AUTO 06009KT 10SM -RA FEW010 SCT014 OVC038 03/02 A2932 RMK AO2 P0001
PAOO 171816Z AUTO 06010KT 10SM -RA BKN012 BKN019 OVC037 03/02 A2933 RMK AO2 P0000
PAOO 171756Z AUTO 06010KT 5SM -RA BR BKN017 BKN029 OVC037 03/02 A2933 RMK AO2 SLP942 P0002 60005 T00280022 10028 20017 58005
PAOO 171656Z AUTO 06008KT 3SM -RA BR OVC015 03/02 A2934 RMK AO2 SLP945 P0002 T00280022
PAOO 171616Z AUTO 06009KT 2SM -RA BR OVC017 03/02 A2934 RMK AO2 P0001
PAOO 171556Z AUTO 06009KT 4SM -RA BR OVC019 02/02 A2934 RMK AO2 UPB03E32RAB32 SLP947 P0001 T00220022 FZRANO
PAOO 171520Z AUTO 06008KT 10SM UP FEW011 BKN021 OVC029 02/02 A2934 RMK AO2 UPB03 P0000 FZRANO
PAOO 171456Z AUTO 05008KT 9SM FEW005 BKN013 OVC017 02/02 A2935 RMK AO2 SLP949 T00220022 56014 FZRANO
PAOO 171428Z AUTO 06007KT 10SM SCT005 OVC017 02/02 A2936 RMK AO2 FZRANO
PAOO 171356Z AUTO 06004KT 10SM SCT010 OVC015 03/02 A2937 RMK AO2 SLP955 T00280022
PAOO 171312Z AUTO 03004KT 3SM BR OVC010 02/02 A2938 RMK AO2 CIG 005V012 FZRANO
PAOO 171303Z AUTO 04005KT 3SM BR OVC008 02/02 A2939 RMK AO2 CIG 005V012 FZRANO
PAOO 171256Z AUTO 04004KT 2 1/2SM BR OVC008 02/02 A2939 RMK AO2 CIG 005V010 SLP962 T00220017 FZRANO
PAOO 171221Z AUTO 04004KT 2SM BR BKN006 OVC010 03/02 A2940 RMK AO2 CIG 004V007
PAOO 171213Z AUTO 02003KT 2 1/2SM BR OVC010 02/02 A2940 RMK AO2 CIG 006V011 FZRANO
PAOO 171156Z AUTO 04003KT 2 1/2SM BR OVC008 02/01 A2940 RMK AO2 CIG 006V011 SLP967 60001 70005 T00170011 10022 20011 58009 FZRANO
PAOO 171114Z AUTO 06003KT 7SM OVC008 02/01 A2942 RMK AO2 CIG 005V014 FZRANO
PAOO 171106Z AUTO 05004KT 5SM BR SCT006 OVC012 02/01 A2941 RMK AO2 FZRANO
PAOO 171056Z AUTO 05005KT 4SM BR BKN006 OVC012 02/01 A2941 RMK AO2 CIG 004V008 SLP971 T00170011 FZRANO
PAOO 171032Z AUTO 05004KT 9SM BKN006 OVC014 02/02 A2942 RMK AO2 CIG 006V010 FZRANO
PAOO 171004Z AUTO 04005KT 5SM BR FEW006 OVC016 02/01 A2943 RMK AO2 FZRANO
PAOO 170956Z AUTO 04005KT 4SM BR SCT006 OVC014 02/01 A2943 RMK AO2 RAE01UPB29E44 SLP976 P0000 T00170011 FZRANO
PAOO 170911Z AUTO 06004KT 7SM BKN008 OVC015 02/01 A2944 RMK AO2 RAE01 CIG 006V012 P0000 FZRANO
PAOO 170856Z AUTO 06005KT 10SM -RA FEW008 BKN014 OVC020 02/01 A2944 RMK AO2 UPB45E52 SLP981 P0000 60001 T00170011 400171011 56017 FZRANO
PAOO 170848Z AUTO 06004KT 10SM UP FEW009 BKN020 OVC038 02/01 A2944 RMK AO2 RAE45UPB45 P0000 FZRANO
PAOO 170814Z AUTO 02003KT 10SM -RA SCT016 BKN027 OVC047 02/01 A2945 RMK AO2 P0000 FZRANO
PAOO 170756Z AUTO 05006KT 10SM -RA SCT030 BKN048 OVC070 02/01 A2945 RMK AO2 SLP985 P0000 T00170011 FZRANO
PAOO 170656Z AUTO 06008KT 10SM -RA SCT020 SCT030 OVC070 02/01 A2947 RMK AO2 SLP989 P0001 T00170011 FZRANO
PAOO 170621Z AUTO 07007KT 10SM -RA BKN020 BKN026 OVC036 01/01 A2949 RMK AO2 P0000 FZRANO
PAOO 170556Z AUTO 07008KT 10SM -RA SCT020 OVC034 01/01 A2949 RMK AO2 SLP997 P0003 60004 T00110006 10017 20011 56019 FZRANO
PAOO 170524Z AUTO 06010KT 10SM -RA SCT009 BKN016 OVC042 01/01 A2950 RMK AO2 CIG 012V021 P0001 FZRANO
PAOO 170503Z AUTO 06010KT 10SM -RA BKN007 BKN022 OVC048 01/01 A2950 RMK AO2 P0000 FZRANO
PAOO 170456Z AUTO 06010KT 10SM -RA FEW009 BKN048 OVC060 01/01 A2951 RMK AO2 SLP002 P0000 T00110006 FZRANO
PAOO 170427Z AUTO 05008KT 10SM -RA SCT008 SCT018 OVC055 01/01 A2951 RMK AO2 P0000 FZRANO
PAOO 170356Z AUTO 05011KT 10SM -RA BKN006 BKN016 OVC045 01/01 A2952 RMK AO2 SLP007 P0001 T00110006 FZRANO
PAOO 170336Z AUTO 06009KT 10SM -RA SCT006 BKN018 OVC045 01/01 A2953 RMK AO2 P0001 FZRANO
PAOO 170256Z AUTO 06009KT 10SM -RA BKN006 BKN010 OVC016 01/01 A2955 RMK AO2 SLP016 P0000 60000 T00110006 56021 FZRANO
PAOO 170209Z AUTO 06009KT 10SM -RA BKN006 BKN017 OVC065 01/01 A2956 RMK AO2 P0000 FZRANO
PAOO 170156Z AUTO 06007KT 10SM -RA FEW008 BKN023 OVC065 01/01 A2956 RMK AO2 SLP022 P0000 T00110006 FZRANO
PAOO 170056Z AUTO 06009KT 10SM -RA OVC006 02/01 A2958 RMK AO2 RAB04 SLP028 P0000 T00170011 FZRANO
PAOO 162356Z AUTO 07008KT 10SM OVC006 01/01 A2961 RMK AO2 SLP037 60000 T00110011 10017 20006 58019 FZRANO
PAOO 162256Z AUTO 08008KT 10SM OVC008 01/01 A2963 RMK AO2 SLP044 T00110006 FZRANO
PAOO 162156Z AUTO 07010KT 10SM BKN006 OVC011 01/01 A2965 RMK AO2 UPB2058E40 SLP051 P0000 T00110006 FZRANO
PAOO 162138Z AUTO 07010KT 3SM UP BR OVC006 01/01 A2965 RMK AO2 UPB2058 CIG 004V009 P0000 FZRANO
PAOO 162131Z AUTO 07011KT 1 3/4SM UP BR OVC008 01/01 A2966 RMK AO2 UPB2058 CIG 004V009 P0000 FZRANO
PAOO 162118Z AUTO 07011KT 2 1/2SM UP BR BKN006 OVC010 01/01 A2966 RMK AO2 UPB2058 CIG 004V008 P0000 FZRANO
PAOO 162056Z AUTO 07011KT 3SM BR BKN006 OVC012 01/01 A2966 RMK AO2 SLP055 T00110006 58002 FZRANO
PAOO 162041Z AUTO 07012KT 10SM FEW008 BKN012 OVC018 01/01 A2967 RMK AO2 FZRANO
PAOO 161956Z AUTO 07012KT 10SM OVC015 01/01 A2967 RMK AO2 SLP059 T00110006 FZRANO